sensor_id;sensor_type;location;lat;lon;timestamp;pressure;altitude;pressure_sealevel;temperature;humidity
37764;BME280;23602;51.084;7.090;2023-02-23T00:01:35;99884.38;;;8.43;100.00
37764;BME280;23602;51.084;7.090;2023-02-23T00:04:00;99893.63;;;8.47;100.00
37764;BME280;23602;51.084;7.090;2023-02-23T00:06:26;99896.72;;;8.44;100.00
37764;BME280;23602;51.084;7.090;2023-02-23T00:08:52;99905.78;;;8.43;100.00
37764;BME280;23602;51.084;7.090;2023-02-23T00:11:18;99904.94;;;8.42;100.00
37764;BME280;23602;51.084;7.090;2023-02-23T00:13:46;99901.25;;;8.43;100.00
37764;BME280;23602;51.084;7.090;2023-02-23T00:16:15;99905.78;;;8.43;100.00
37764;BME280;23602;51.084;7.090;2023-02-23T00:18:46;99900.63;;;8.41;100.00
37764;BME280;23602;51.084;7.090;2023-02-23T00:21:14;99904.13;;;8.42;100.00
37764;BME280;23602;51.084;7.090;2023-02-23T00:23:46;99893.41;;;8.42;100.00
37764;BME280;23602;51.084;7.090;2023-02-23T00:26:12;99897.97;;;8.41;100.00
37764;BME280;23602;51.084;7.090;2023-02-23T00:28:38;99889.94;;;8.41;100.00
37764;BME280;23602;51.084;7.090;2023-02-23T00:31:05;99888.06;;;8.42;100.00
37764;BME280;23602;51.084;7.090;2023-02-23T00:33:30;99884.38;;;8.43;100.00
37764;BME280;23602;51.084;7.090;2023-02-23T00:36:01;99888.69;;;8.44;100.00
37764;BME280;23602;51.084;7.090;2023-02-23T00:38:27;99888.06;;;8.42;100.00
37764;BME280;23602;51.084;7.090;2023-02-23T00:40:52;99887.25;;;8.41;100.00
37764;BME280;23602;51.084;7.090;2023-02-23T00:43:18;99872.00;;;8.42;100.00
37764;BME280;23602;51.084;7.090;2023-02-23T00:45:43;99874.88;;;8.40;100.00
37764;BME280;23602;51.084;7.090;2023-02-23T00:48:10;99876.72;;;8.40;100.00
37764;BME280;23602;51.084;7.090;2023-02-23T00:50:36;99875.91;;;8.39;100.00
37764;BME280;23602;51.084;7.090;2023-02-23T00:53:03;99871.38;;;8.40;100.00
37764;BME280;23602;51.084;7.090;2023-02-23T00:55:28;99876.72;;;8.40;100.00
37764;BME280;23602;51.084;7.090;2023-02-23T00:57:54;99877.78;;;8.39;100.00
37764;BME280;23602;51.084;7.090;2023-02-23T01:00:19;99883.53;;;8.36;100.00
37764;BME280;23602;51.084;7.090;2023-02-23T01:02:46;99879.19;;;8.35;100.00
37764;BME280;23602;51.084;7.090;2023-02-23T01:05:11;99888.88;;;8.36;100.00
37764;BME280;23602;51.084;7.090;2023-02-23T01:07:37;99882.47;;;8.37;100.00
37764;BME280;23602;51.084;7.090;2023-02-23T01:10:03;99887.03;;;8.36;100.00
37764;BME280;23602;51.084;7.090;2023-02-23T01:12:42;99882.69;;;8.35;100.00
37764;BME280;23602;51.084;7.090;2023-02-23T01:15:17;99879.59;;;8.32;100.00
37764;BME280;23602;51.084;7.090;2023-02-23T01:17:45;99884.75;;;8.33;100.00
37764;BME280;23602;51.084;7.090;2023-02-23T01:20:11;99880.22;;;8.34;100.00
37764;BME280;23602;51.084;7.090;2023-02-23T01:22:46;99889.06;;;8.34;100.00
37764;BME280;23602;51.084;7.090;2023-02-23T01:25:22;99883.72;;;8.34;100.00
37764;BME280;23602;51.084;7.090;2023-02-23T01:27:48;99882.69;;;8.35;100.00
37764;BME280;23602;51.084;7.090;2023-02-23T01:32:40;99881.88;;;8.35;100.00
37764;BME280;23602;51.084;7.090;2023-02-23T01:35:08;99886.19;;;8.36;100.00
37764;BME280;23602;51.084;7.090;2023-02-23T01:37:37;99880.00;;;8.35;100.00
37764;BME280;23602;51.084;7.090;2023-02-23T01:40:06;99880.22;;;8.34;100.00
37764;BME280;23602;51.084;7.090;2023-02-23T01:42:37;99880.22;;;8.34;100.00
37764;BME280;23602;51.084;7.090;2023-02-23T01:47:43;99872.59;;;8.31;100.00
37764;BME280;23602;51.084;7.090;2023-02-23T01:50:08;99872.59;;;8.31;100.00
37764;BME280;23602;51.084;7.090;2023-02-23T01:52:35;99874.03;;;8.33;100.00
37764;BME280;23602;51.084;7.090;2023-02-23T01:55:01;99873.22;;;8.33;100.00
37764;BME280;23602;51.084;7.090;2023-02-23T01:57:34;99873.22;;;8.33;100.00
37764;BME280;23602;51.084;7.090;2023-02-23T02:00:00;99870.53;;;8.33;100.00
37764;BME280;23602;51.084;7.090;2023-02-23T02:02:26;99874.44;;;8.30;100.00
37764;BME280;23602;51.084;7.090;2023-02-23T02:04:58;99876.28;;;8.30;100.00
37764;BME280;23602;51.084;7.090;2023-02-23T02:07:24;99859.97;;;8.24;100.00
37764;BME280;23602;51.084;7.090;2023-02-23T02:09:55;99870.94;;;8.30;100.00
37764;BME280;23602;51.084;7.090;2023-02-23T02:12:38;99859.97;;;8.24;100.00
37764;BME280;23602;51.084;7.090;2023-02-23T02:15:06;99869.84;;;8.24;100.00
37764;BME280;23602;51.084;7.090;2023-02-23T02:20:24;99876.69;;;8.26;100.00
37764;BME280;23602;51.084;7.090;2023-02-23T02:25:46;99883.06;;;8.25;100.00
37764;BME280;23602;51.084;7.090;2023-02-23T02:28:22;99872.34;;;8.25;100.00
37764;BME280;23602;51.084;7.090;2023-02-23T02:36:21;99875.03;;;8.25;100.00
37764;BME280;23602;51.084;7.090;2023-02-23T02:47:07;99872.34;;;8.25;100.00
37764;BME280;23602;51.084;7.090;2023-02-23T02:49:42;99870.69;;;8.24;100.00
37764;BME280;23602;51.084;7.090;2023-02-23T02:52:12;99864.50;;;8.24;100.00
37764;BME280;23602;51.084;7.090;2023-02-23T02:54:51;99867.16;;;8.24;100.00
37764;BME280;23602;51.084;7.090;2023-02-23T02:57:18;99866.38;;;8.23;100.00
37764;BME280;23602;51.084;7.090;2023-02-23T02:59:45;99870.06;;;8.22;100.00
37764;BME280;23602;51.084;7.090;2023-02-23T03:02:30;99867.59;;;8.21;100.00
37764;BME280;23602;51.084;7.090;2023-02-23T03:05:18;99865.94;;;8.20;100.00
37764;BME280;23602;51.084;7.090;2023-02-23T03:08:06;99864.28;;;8.19;100.00
37764;BME280;23602;51.084;7.090;2023-02-23T03:11:02;99866.16;;;8.18;100.00
37764;BME280;23602;51.084;7.090;2023-02-23T03:16:36;99874.97;;;8.19;100.00
37764;BME280;23602;51.084;7.090;2023-02-23T03:19:24;99876.84;;;8.18;100.00
37764;BME280;23602;51.084;7.090;2023-02-23T03:25:00;99876.84;;;8.18;100.00
37764;BME280;23602;51.084;7.090;2023-02-23T03:27:50;99866.16;;;8.18;100.00
37764;BME280;23602;51.084;7.090;2023-02-23T03:30:38;99876.84;;;8.18;100.00
37764;BME280;23602;51.084;7.090;2023-02-23T03:36:42;99877.03;;;8.17;100.00
37764;BME280;23602;51.084;7.090;2023-02-23T03:39:37;99874.56;;;8.15;100.00
37764;BME280;23602;51.084;7.090;2023-02-23T03:42:25;99872.72;;;8.16;100.00
37764;BME280;23602;51.084;7.090;2023-02-23T03:45:11;99879.94;;;8.15;100.00
37764;BME280;23602;51.084;7.090;2023-02-23T03:47:57;99880.53;;;8.17;100.00
37764;BME280;23602;51.084;7.090;2023-02-23T03:50:44;99877.03;;;8.17;100.00
37764;BME280;23602;51.084;7.090;2023-02-23T03:54:07;99870.84;;;8.16;100.00
37764;BME280;23602;51.084;7.090;2023-02-23T03:56:42;99877.03;;;8.17;100.00
37764;BME280;23602;51.084;7.090;2023-02-23T03:59:28;99875.59;;;8.14;100.00
37764;BME280;23602;51.084;7.090;2023-02-23T04:02:22;99883.22;;;8.17;100.00
37764;BME280;23602;51.084;7.090;2023-02-23T04:05:08;99884.88;;;8.18;100.00
37764;BME280;23602;51.084;7.090;2023-02-23T04:07:53;99888.56;;;8.17;100.00
37764;BME280;23602;51.084;7.090;2023-02-23T04:10:39;99897.63;;;8.16;100.00
37764;BME280;23602;51.084;7.090;2023-02-23T04:13:25;99901.13;;;8.17;100.00
37764;BME280;23602;51.084;7.090;2023-02-23T04:15:53;99900.28;;;8.16;100.00
37764;BME280;23602;51.084;7.090;2023-02-23T04:18:26;99903.19;;;8.15;100.00
37764;BME280;23602;51.084;7.090;2023-02-23T04:20:53;99894.94;;;8.16;100.00
37764;BME280;23602;51.084;7.090;2023-02-23T04:23:18;99904.84;;;8.16;100.00
37764;BME280;23602;51.084;7.090;2023-02-23T04:25:51;99905.66;;;8.16;100.00
37764;BME280;23602;51.084;7.090;2023-02-23T04:28:19;99911.00;;;8.16;100.00
37764;BME280;23602;51.084;7.090;2023-02-23T04:30:54;99912.03;;;8.15;100.00
37764;BME280;23602;51.084;7.090;2023-02-23T04:33:20;99913.69;;;8.16;100.00
37764;BME280;23602;51.084;7.090;2023-02-23T04:35:48;99915.56;;;8.16;100.00
37764;BME280;23602;51.084;7.090;2023-02-23T04:38:15;99917.41;;;8.15;100.00
37764;BME280;23602;51.084;7.090;2023-02-23T04:40:48;99916.34;;;8.16;100.00
37764;BME280;23602;51.084;7.090;2023-02-23T04:43:16;99922.34;;;8.18;100.00
37764;BME280;23602;51.084;7.090;2023-02-23T04:45:42;99917.00;;;8.18;100.00
37764;BME280;23602;51.084;7.090;2023-02-23T04:48:08;99917.00;;;8.18;100.00
37764;BME280;23602;51.084;7.090;2023-02-23T04:50:36;99915.34;;;8.17;100.00
37764;BME280;23602;51.084;7.090;2023-02-23T04:53:01;99916.34;;;8.16;100.00
37764;BME280;23602;51.084;7.090;2023-02-23T04:55:26;99915.56;;;8.16;100.00
37764;BME280;23602;51.084;7.090;2023-02-23T04:57:55;99920.06;;;8.15;100.00
37764;BME280;23602;51.084;7.090;2023-02-23T05:00:21;99919.25;;;8.15;100.00
37764;BME280;23602;51.084;7.090;2023-02-23T05:02:46;99921.91;;;8.15;100.00
37764;BME280;23602;51.084;7.090;2023-02-23T05:05:12;99917.41;;;8.15;100.00
37764;BME280;23602;51.084;7.090;2023-02-23T05:07:37;99933.47;;;8.15;100.00
37764;BME280;23602;51.084;7.090;2023-02-23T05:10:04;99922.94;;;8.14;100.00
37764;BME280;23602;51.084;7.090;2023-02-23T05:12:29;99923.97;;;8.13;100.00
37764;BME280;23602;51.084;7.090;2023-02-23T05:14:56;99933.84;;;8.12;100.00
37764;BME280;23602;51.084;7.090;2023-02-23T05:17:21;99927.88;;;8.10;100.00
37764;BME280;23602;51.084;7.090;2023-02-23T05:19:47;99934.88;;;8.11;100.00
37764;BME280;23602;51.084;7.090;2023-02-23T05:22:12;99930.34;;;8.12;100.00
37764;BME280;23602;51.084;7.090;2023-02-23T05:24:38;99934.06;;;8.11;100.00
37764;BME280;23602;51.084;7.090;2023-02-23T05:27:04;99930.56;;;8.10;100.00
37764;BME280;23602;51.084;7.090;2023-02-23T05:29:29;99938.59;;;8.10;100.00
37764;BME280;23602;51.084;7.090;2023-02-23T05:31:54;99932.16;;;8.05;100.00
37764;BME280;23602;51.084;7.090;2023-02-23T05:34:20;99938.59;;;8.10;100.00
37764;BME280;23602;51.084;7.090;2023-02-23T05:36:45;99943.94;;;8.10;100.00
37764;BME280;23602;51.084;7.090;2023-02-23T05:39:11;99948.44;;;8.10;100.00
37764;BME280;23602;51.084;7.090;2023-02-23T05:41:36;99935.91;;;8.10;100.00
37764;BME280;23602;51.084;7.090;2023-02-23T05:44:02;99941.44;;;8.09;100.00
37764;BME280;23602;51.084;7.090;2023-02-23T05:46:27;99936.91;;;8.09;100.00
37764;BME280;23602;51.084;7.090;2023-02-23T05:48:54;99935.28;;;8.08;100.00
37764;BME280;23602;51.084;7.090;2023-02-23T05:51:20;99945.34;;;8.06;100.00
37764;BME280;23602;51.084;7.090;2023-02-23T05:53:45;99947.84;;;8.08;100.00
37764;BME280;23602;51.084;7.090;2023-02-23T05:56:12;99943.69;;;8.05;100.00
37764;BME280;23602;51.084;7.090;2023-02-23T05:58:37;99949.69;;;8.07;100.00
37764;BME280;23602;51.084;7.090;2023-02-23T06:01:03;99952.75;;;8.04;100.00
37764;BME280;23602;51.084;7.090;2023-02-23T06:03:28;99950.50;;;8.08;100.00
37764;BME280;23602;51.084;7.090;2023-02-23T06:05:54;99944.31;;;8.07;100.00
37764;BME280;23602;51.084;7.090;2023-02-23T06:08:21;99955.03;;;8.07;100.00
37764;BME280;23602;51.084;7.090;2023-02-23T06:10:46;99950.91;;;8.05;100.00
37764;BME280;23602;51.084;7.090;2023-02-23T06:13:27;99951.72;;;8.05;100.00
37764;BME280;23602;51.084;7.090;2023-02-23T06:15:53;99953.56;;;8.05;100.00
37764;BME280;23602;51.084;7.090;2023-02-23T06:18:18;99962.44;;;8.05;100.00
37764;BME280;23602;51.084;7.090;2023-02-23T06:20:45;99960.78;;;8.04;100.00
37764;BME280;23602;51.084;7.090;2023-02-23T06:23:10;99960.78;;;8.04;100.00
37764;BME280;23602;51.084;7.090;2023-02-23T06:25:36;99965.09;;;8.05;100.00
37764;BME280;23602;51.084;7.090;2023-02-23T06:28:01;99966.97;;;8.05;100.00
37764;BME280;23602;51.084;7.090;2023-02-23T06:30:26;99962.63;;;8.04;100.00
37764;BME280;23602;51.084;7.090;2023-02-23T06:32:52;99963.44;;;8.04;100.00
37764;BME280;23602;51.084;7.090;2023-02-23T06:35:17;99975.81;;;8.05;100.00
37764;BME280;23602;51.084;7.090;2023-02-23T06:37:43;99976.81;;;8.04;100.00
37764;BME280;23602;51.084;7.090;2023-02-23T06:40:08;99977.66;;;8.05;100.00
37764;BME280;23602;51.084;7.090;2023-02-23T06:42:34;99983.84;;;8.05;100.00
37764;BME280;23602;51.084;7.090;2023-02-23T06:45:01;99983.00;;;8.05;100.00
37764;BME280;23602;51.084;7.090;2023-02-23T06:47:33;99983.22;;;8.03;100.00
37764;BME280;23602;51.084;7.090;2023-02-23T06:49:59;99975.19;;;8.03;100.00
37764;BME280;23602;51.084;7.090;2023-02-23T06:52:25;99984.84;;;8.04;100.00
37764;BME280;23602;51.084;7.090;2023-02-23T06:54:51;99985.69;;;8.05;100.00
37764;BME280;23602;51.084;7.090;2023-02-23T06:57:16;99989.38;;;8.04;100.00
37764;BME280;23602;51.084;7.090;2023-02-23T06:59:42;99992.06;;;8.04;100.00
37764;BME280;23602;51.084;7.090;2023-02-23T07:02:11;99989.38;;;8.04;100.00
37764;BME280;23602;51.084;7.090;2023-02-23T07:04:40;100005.25;;;8.05;100.00
37764;BME280;23602;51.084;7.090;2023-02-23T07:07:05;99993.50;;;8.06;100.00
37764;BME280;23602;51.084;7.090;2023-02-23T07:09:31;99996.19;;;8.06;100.00
37764;BME280;23602;51.084;7.090;2023-02-23T07:11:56;99998.69;;;8.08;100.00
37764;BME280;23602;51.084;7.090;2023-02-23T07:14:21;100007.53;;;8.08;100.00
37764;BME280;23602;51.084;7.090;2023-02-23T07:16:46;100002.56;;;8.05;100.00
37764;BME280;23602;51.084;7.090;2023-02-23T07:19:12;100011.84;;;8.09;100.00
37764;BME280;23602;51.084;7.090;2023-02-23T07:21:37;100011.03;;;8.09;100.00
37764;BME280;23602;51.084;7.090;2023-02-23T07:24:03;100015.56;;;8.08;100.00
37764;BME280;23602;51.084;7.090;2023-02-23T07:26:30;100013.69;;;8.09;100.00
37764;BME280;23602;51.084;7.090;2023-02-23T07:28:56;100015.56;;;8.08;100.00
37764;BME280;23602;51.084;7.090;2023-02-23T07:31:22;100015.34;;;8.10;100.00
37764;BME280;23602;51.084;7.090;2023-02-23T07:33:47;100019.03;;;8.09;100.00
37764;BME280;23602;51.084;7.090;2023-02-23T07:36:12;100016.38;;;8.09;100.00
37764;BME280;23602;51.084;7.090;2023-02-23T07:38:37;100019.88;;;8.09;100.00
37764;BME280;23602;51.084;7.090;2023-02-23T07:41:03;100023.38;;;8.10;100.00
37764;BME280;23602;51.084;7.090;2023-02-23T07:43:28;100025.22;;;8.09;100.00
37764;BME280;23602;51.084;7.090;2023-02-23T07:45:55;100032.25;;;8.10;100.00
37764;BME280;23602;51.084;7.090;2023-02-23T07:48:22;100031.22;;;8.11;100.00
37764;BME280;23602;51.084;7.090;2023-02-23T07:50:48;100029.56;;;8.10;100.00
37764;BME280;23602;51.084;7.090;2023-02-23T07:53:13;100025.22;;;8.09;100.00
37764;BME280;23602;51.084;7.090;2023-02-23T07:55:39;100033.84;;;8.05;100.00
37764;BME280;23602;51.084;7.090;2023-02-23T07:58:07;100040.81;;;7.99;100.00
37764;BME280;23602;51.084;7.090;2023-02-23T08:00:41;100045.16;;;8.00;100.00
37764;BME280;23602;51.084;7.090;2023-02-23T08:03:09;100052.97;;;8.02;100.00
37764;BME280;23602;51.084;7.090;2023-02-23T08:05:34;100050.28;;;8.02;100.00
37764;BME280;23602;51.084;7.090;2023-02-23T08:08:00;100053.59;;;8.04;100.00
37764;BME280;23602;51.084;7.090;2023-02-23T08:10:26;100056.28;;;8.04;100.00
37764;BME280;23602;51.084;7.090;2023-02-23T08:12:51;100053.81;;;8.02;100.00
37764;BME280;23602;51.084;7.090;2023-02-23T08:15:17;100056.47;;;8.02;100.00
37764;BME280;23602;51.084;7.090;2023-02-23T08:17:42;100071.53;;;8.03;100.00
37764;BME280;23602;51.084;7.090;2023-02-23T08:20:08;100070.69;;;8.03;100.00
37764;BME280;23602;51.084;7.090;2023-02-23T08:22:33;100068.03;;;8.03;100.00
37764;BME280;23602;51.084;7.090;2023-02-23T08:24:59;100072.16;;;8.05;100.00
37764;BME280;23602;51.084;7.090;2023-02-23T08:27:25;100071.94;;;8.07;100.00
37764;BME280;23602;51.084;7.090;2023-02-23T08:29:54;100073.16;;;8.04;100.00
37764;BME280;23602;51.084;7.090;2023-02-23T08:32:19;100078.13;;;8.07;100.00
37764;BME280;23602;51.084;7.090;2023-02-23T08:34:45;100076.88;;;8.03;100.00
37764;BME280;23602;51.084;7.090;2023-02-23T08:37:10;100091.91;;;8.04;100.00
37764;BME280;23602;51.084;7.090;2023-02-23T08:39:36;100084.31;;;8.08;100.00
37764;BME280;23602;51.084;7.090;2023-02-23T08:42:01;100085.16;;;8.08;100.00
37764;BME280;23602;51.084;7.090;2023-02-23T08:44:26;100083.28;;;8.09;100.00
37764;BME280;23602;51.084;7.090;2023-02-23T08:46:52;100094.19;;;8.07;100.00
37764;BME280;23602;51.084;7.090;2023-02-23T08:49:19;100096.25;;;8.05;100.00
37764;BME280;23602;51.084;7.090;2023-02-23T08:51:44;100093.56;;;8.05;100.00
37764;BME280;23602;51.084;7.090;2023-02-23T08:54:11;100097.06;;;8.06;100.00
37764;BME280;23602;51.084;7.090;2023-02-23T08:56:39;100095.19;;;8.06;100.00
37764;BME280;23602;51.084;7.090;2023-02-23T08:59:04;100103.44;;;8.05;100.00
37764;BME280;23602;51.084;7.090;2023-02-23T09:01:29;100102.44;;;8.06;100.00
37764;BME280;23602;51.084;7.090;2023-02-23T09:03:55;100101.59;;;8.05;100.00
37764;BME280;23602;51.084;7.090;2023-02-23T09:06:21;100099.09;;;8.04;100.00
37764;BME280;23602;51.084;7.090;2023-02-23T09:08:47;100103.44;;;8.05;100.00
37764;BME280;23602;51.084;7.090;2023-02-23T09:11:12;100112.69;;;8.02;100.00
37764;BME280;23602;51.084;7.090;2023-02-23T09:13:37;100115.16;;;8.04;100.00
37764;BME280;23602;51.084;7.090;2023-02-23T09:16:03;100110.25;;;8.07;100.00
37764;BME280;23602;51.084;7.090;2023-02-23T09:18:29;100121.78;;;8.08;100.00
37764;BME280;23602;51.084;7.090;2023-02-23T09:20:54;100117.91;;;8.10;100.00
37764;BME280;23602;51.084;7.090;2023-02-23T09:23:20;100121.00;;;8.14;100.00
37764;BME280;23602;51.084;7.090;2023-02-23T09:25:45;100127.63;;;8.18;100.00
37764;BME280;23602;51.084;7.090;2023-02-23T09:28:16;100122.69;;;8.21;100.00
37764;BME280;23602;51.084;7.090;2023-02-23T09:30:45;100118.00;;;8.23;100.00
37764;BME280;23602;51.084;7.090;2023-02-23T09:33:11;100113.44;;;8.24;100.00
37764;BME280;23602;51.084;7.090;2023-02-23T09:35:37;100111.03;;;8.29;100.00
37764;BME280;23602;51.084;7.090;2023-02-23T09:38:03;100114.16;;;8.33;100.00
37764;BME280;23602;51.084;7.090;2023-02-23T09:40:30;100113.16;;;8.34;100.00
37764;BME280;23602;51.084;7.090;2023-02-23T09:45:28;100122.88;;;8.41;100.00
37764;BME280;23602;51.084;7.090;2023-02-23T09:50:24;100121.09;;;8.55;100.00
37764;BME280;23602;51.084;7.090;2023-02-23T09:52:55;100119.72;;;8.65;100.00
37764;BME280;23602;51.084;7.090;2023-02-23T09:55:23;100119.59;;;8.80;100.00
37764;BME280;23602;51.084;7.090;2023-02-23T09:57:49;100115.34;;;8.92;100.00
37764;BME280;23602;51.084;7.090;2023-02-23T10:00:21;100110.00;;;8.99;100.00
37764;BME280;23602;51.084;7.090;2023-02-23T10:05:19;100103.84;;;9.11;100.00
37764;BME280;23602;51.084;7.090;2023-02-23T10:08:06;100100.97;;;9.13;100.00
37764;BME280;23602;51.084;7.090;2023-02-23T10:10:46;100098.09;;;9.14;100.00
37764;BME280;23602;51.084;7.090;2023-02-23T10:15:49;100089.78;;;9.03;100.00
37764;BME280;23602;51.084;7.090;2023-02-23T10:21:02;100089.38;;;8.99;100.00
37764;BME280;23602;51.084;7.090;2023-02-23T10:23:48;100087.53;;;9.00;100.00
37764;BME280;23602;51.084;7.090;2023-02-23T10:26:23;100082.97;;;9.00;100.00
37764;BME280;23602;51.084;7.090;2023-02-23T10:28:49;100090.22;;;9.00;100.00
37764;BME280;23602;51.084;7.090;2023-02-23T10:31:26;100092.91;;;9.06;100.00
37764;BME280;23602;51.084;7.090;2023-02-23T10:33:52;100083.84;;;9.07;100.00
37764;BME280;23602;51.084;7.090;2023-02-23T10:36:31;100081.97;;;9.01;100.00
37764;BME280;23602;51.084;7.090;2023-02-23T10:38:58;100086.72;;;9.06;100.00
37764;BME280;23602;51.084;7.090;2023-02-23T10:41:24;100087.78;;;9.11;100.00
37764;BME280;23602;51.084;7.090;2023-02-23T10:43:49;100096.06;;;9.23;100.00
37764;BME280;23602;51.084;7.090;2023-02-23T10:46:19;100094.00;;;9.31;100.00
37764;BME280;23602;51.084;7.090;2023-02-23T10:48:45;100086.38;;;9.28;100.00
37764;BME280;23602;51.084;7.090;2023-02-23T10:51:16;100078.09;;;9.17;100.00
37764;BME280;23602;51.084;7.090;2023-02-23T10:53:42;100082.44;;;9.18;100.00
37764;BME280;23602;51.084;7.090;2023-02-23T10:56:09;100081.22;;;9.27;100.00
37764;BME280;23602;51.084;7.090;2023-02-23T10:59:17;100091.16;;;9.33;100.00
37764;BME280;23602;51.084;7.090;2023-02-23T11:01:39;100081.44;;;9.38;100.00
37764;BME280;23602;51.084;7.090;2023-02-23T11:04:15;100077.53;;;9.28;100.00
37764;BME280;23602;51.084;7.090;2023-02-23T11:06:42;100082.25;;;9.26;100.00
37764;BME280;23602;51.084;7.090;2023-02-23T11:09:25;100085.53;;;9.21;100.00
37764;BME280;23602;51.084;7.090;2023-02-23T11:12:00;100083.69;;;9.22;100.00
37764;BME280;23602;51.084;7.090;2023-02-23T11:14:31;100082.19;;;9.13;100.00
37764;BME280;23602;51.084;7.090;2023-02-23T11:16:57;100075.38;;;9.10;100.00
37764;BME280;23602;51.084;7.090;2023-02-23T11:19:24;100071.88;;;9.03;100.00
37764;BME280;23602;51.084;7.090;2023-02-23T11:21:50;100079.28;;;9.01;100.00
37764;BME280;23602;51.084;7.090;2023-02-23T11:24:18;100082.75;;;8.95;100.00
37764;BME280;23602;51.084;7.090;2023-02-23T11:26:49;100077.41;;;8.95;100.00
37764;BME280;23602;51.084;7.090;2023-02-23T11:29:21;100081.50;;;8.91;100.00
37764;BME280;23602;51.084;7.090;2023-02-23T11:31:48;100078.59;;;8.86;100.00
37764;BME280;23602;51.084;7.090;2023-02-23T11:34:28;100085.22;;;8.90;100.00
37764;BME280;23602;51.084;7.090;2023-02-23T11:36:58;100086.66;;;8.86;100.00
37764;BME280;23602;51.084;7.090;2023-02-23T11:39:24;100079.63;;;8.85;100.00
37764;BME280;23602;51.084;7.090;2023-02-23T11:42:02;100087.66;;;8.85;100.00
37764;BME280;23602;51.084;7.090;2023-02-23T11:44:28;100080.06;;;8.82;100.00
37764;BME280;23602;51.084;7.090;2023-02-23T11:46:53;100084.19;;;8.84;100.00
37764;BME280;23602;51.084;7.090;2023-02-23T11:49:20;100085.19;;;8.83;100.00
37764;BME280;23602;51.084;7.090;2023-02-23T11:51:49;100070.34;;;8.87;100.00
37764;BME280;23602;51.084;7.090;2023-02-23T11:54:19;100077.81;;;8.92;100.00
37764;BME280;23602;51.084;7.090;2023-02-23T11:56:47;100067.09;;;8.92;100.00
37764;BME280;23602;51.084;7.090;2023-02-23T11:59:15;100081.78;;;9.09;100.00
37764;BME280;23602;51.084;7.090;2023-02-23T12:01:57;100076.25;;;9.24;100.00
37764;BME280;23602;51.084;7.090;2023-02-23T12:04:26;100075.47;;;9.36;100.00
37764;BME280;23602;51.084;7.090;2023-02-23T12:09:39;100060.00;;;9.51;100.00
37764;BME280;23602;51.084;7.090;2023-02-23T12:12:07;100045.38;;;9.47;100.00
37764;BME280;23602;51.084;7.090;2023-02-23T12:17:15;100032.97;;;9.46;100.00
37764;BME280;23602;51.084;7.090;2023-02-23T12:19:43;100030.50;;;9.51;100.00
37764;BME280;23602;51.084;7.090;2023-02-23T12:24:38;100035.88;;;9.51;100.00
37764;BME280;23602;51.084;7.090;2023-02-23T12:32:28;100044.91;;;9.24;100.00
37764;BME280;23602;51.084;7.090;2023-02-23T12:35:05;100044.91;;;9.18;100.00
37764;BME280;23602;51.084;7.090;2023-02-23T12:37:38;100044.44;;;9.01;100.00
37764;BME280;23602;51.084;7.090;2023-02-23T12:44:59;100047.06;;;8.88;100.00
37764;BME280;23602;51.084;7.090;2023-02-23T12:47:32;100043.13;;;8.77;100.00
37764;BME280;23602;51.084;7.090;2023-02-23T12:52:54;100057.97;;;8.80;100.00
37764;BME280;23602;51.084;7.090;2023-02-23T12:55:37;100064.16;;;8.80;100.00
37764;BME280;23602;51.084;7.090;2023-02-23T13:03:11;100067.06;;;8.85;100.00
37764;BME280;23602;51.084;7.090;2023-02-23T13:06:24;100064.19;;;8.87;100.00
37764;BME280;23602;51.084;7.090;2023-02-23T13:08:45;100058.78;;;8.80;100.00
37764;BME280;23602;51.084;7.090;2023-02-23T13:14:01;100060.03;;;8.78;100.00
37764;BME280;23602;51.084;7.090;2023-02-23T13:21:43;100066.38;;;8.64;100.00
37764;BME280;23602;51.084;7.090;2023-02-23T13:24:16;100065.91;;;8.60;100.00
37764;BME280;23602;51.084;7.090;2023-02-23T13:26:48;100067.53;;;8.55;100.00
37764;BME280;23602;51.084;7.090;2023-02-23T13:29:28;100066.84;;;8.40;100.00
37764;BME280;23602;51.084;7.090;2023-02-23T13:31:57;100072.78;;;8.35;100.00
37764;BME280;23602;51.084;7.090;2023-02-23T13:34:25;100069.44;;;8.26;100.00
37764;BME280;23602;51.084;7.090;2023-02-23T13:36:51;100077.91;;;8.30;100.00
37764;BME280;23602;51.084;7.090;2023-02-23T13:39:21;100073.56;;;8.29;100.00
37764;BME280;23602;51.084;7.090;2023-02-23T13:45:19;100084.59;;;8.19;100.00
37764;BME280;23602;51.084;7.090;2023-02-23T13:49:56;100094.22;;;8.14;100.00
37764;BME280;23602;51.084;7.090;2023-02-23T13:54:53;100096.28;;;8.12;100.00
37764;BME280;23602;51.084;7.090;2023-02-23T13:57:22;100103.88;;;8.08;100.00
37764;BME280;23602;51.084;7.090;2023-02-23T13:59:47;100108.19;;;8.09;100.00
37764;BME280;23602;51.084;7.090;2023-02-23T14:05:27;100113.31;;;8.04;100.00
37764;BME280;23602;51.084;7.090;2023-02-23T14:07:47;100116.22;;;8.09;100.00
37764;BME280;23602;51.084;7.090;2023-02-23T14:10:16;100117.03;;;8.03;100.00
37764;BME280;23602;51.084;7.090;2023-02-23T14:13:03;100112.28;;;8.05;100.00
37764;BME280;23602;51.084;7.090;2023-02-23T14:25:49;100112.44;;;8.25;100.00
37764;BME280;23602;51.084;7.090;2023-02-23T14:30:59;100109.88;;;8.38;100.00
37764;BME280;23602;51.084;7.090;2023-02-23T14:38:49;100091.63;;;8.48;100.00
37764;BME280;23602;51.084;7.090;2023-02-23T14:41:19;100097.81;;;8.49;100.00
37764;BME280;23602;51.084;7.090;2023-02-23T14:43:45;100098.81;;;8.48;100.00
37764;BME280;23602;51.084;7.090;2023-02-23T14:46:21;100099.03;;;8.46;100.00
37764;BME280;23602;51.084;7.090;2023-02-23T14:48:58;100093.81;;;8.38;100.00
37764;BME280;23602;51.084;7.090;2023-02-23T14:51:26;100091.53;;;8.35;100.00
37764;BME280;23602;51.084;7.090;2023-02-23T14:53:57;100099.13;;;8.32;100.00
37764;BME280;23602;51.084;7.090;2023-02-23T14:56:23;100098.88;;;8.26;100.00
37764;BME280;23602;51.084;7.090;2023-02-23T14:58:52;100097.66;;;8.29;100.00